createdAt,value
2019-02-21T00:13:43.737Z,101462.85
2019-02-21T00:16:13.795Z,101464.48
2019-02-21T00:24:07.076Z,101471.56
2019-02-21T00:26:36.810Z,101472.99
2019-02-21T00:29:06.407Z,101470.77
2019-02-21T00:31:36.169Z,101472.01
2019-02-21T00:34:06.406Z,101441.16
2019-02-21T00:36:35.970Z,101472.31
2019-02-21T00:39:07.161Z,101468.31
2019-02-21T00:41:37.109Z,101474.03
2019-02-21T00:44:06.956Z,101473.22
2019-02-21T00:46:36.626Z,101475.50
2019-02-21T00:49:06.588Z,101479.52
2019-02-21T00:51:36.729Z,101476.73
2019-02-21T00:54:06.563Z,101476.73
2019-02-21T00:56:36.517Z,101473.20
2019-02-21T00:59:06.221Z,101466.70
2019-02-21T01:01:36.312Z,101476.80
2019-02-21T01:04:06.314Z,101476.82
2019-02-21T01:06:36.062Z,101482.95
2019-02-21T01:09:06.773Z,101479.93
2019-02-21T01:11:36.534Z,101479.45
2019-02-21T01:14:06.558Z,101471.89
2019-02-21T01:16:36.138Z,101471.89
2019-02-21T01:19:06.388Z,101470.02
2019-02-21T01:21:36.112Z,101464.14
2019-02-21T01:24:05.958Z,101465.11
2019-02-21T01:26:35.710Z,101458.17
2019-02-21T01:29:05.323Z,101455.06
2019-02-21T01:31:35.256Z,101461.02
2019-02-21T01:34:05.033Z,101461.02
2019-02-21T01:36:35.852Z,101455.41
2019-02-21T01:39:07.092Z,101453.61
2019-02-21T01:41:37.223Z,101453.48
2019-02-21T01:44:07.003Z,101445.45
2019-02-21T01:46:36.701Z,101441.84
2019-02-21T01:49:06.485Z,101440.46
2019-02-21T01:51:36.282Z,101445.38
2019-02-21T01:54:06.268Z,101445.38
2019-02-21T01:56:35.851Z,101432.30
2019-02-21T01:59:05.475Z,101440.06
2019-02-21T02:01:35.235Z,101436.44
2019-02-21T02:04:04.863Z,101430.40
2019-02-21T02:06:36.388Z,101429.41
2019-02-21T02:09:11.478Z,101423.31
2019-02-21T02:11:41.202Z,101419.81
2019-02-21T02:14:10.905Z,101422.80
2019-02-21T02:16:40.491Z,101418.95
2019-02-21T02:19:10.675Z,101412.42
2019-02-21T02:21:40.926Z,101409.34
2019-02-21T02:24:10.531Z,101411.95
2019-02-21T02:26:40.271Z,101405.93
2019-02-21T02:29:10.053Z,101404.90
2019-02-21T02:31:39.812Z,101402.23
2019-02-21T02:34:09.416Z,101402.20
2019-02-21T02:36:39.379Z,101400.98
2019-02-21T02:39:09.118Z,101407.44
2019-02-21T02:41:38.894Z,101406.25
2019-02-21T02:44:08.711Z,101404.11
2019-02-21T02:46:38.499Z,101403.27
2019-02-21T02:49:08.587Z,101406.64
2019-02-21T02:51:38.484Z,101406.56
2019-02-21T02:54:08.167Z,101401.89
2019-02-21T02:56:38.005Z,101401.89
2019-02-21T02:59:07.824Z,101410.13
2019-02-21T03:01:37.702Z,101404.90
2019-02-21T03:04:07.421Z,101405.34
2019-02-21T03:06:37.317Z,101404.42
2019-02-21T03:09:10.235Z,101396.19
2019-02-21T03:11:40.145Z,101396.19
2019-02-21T03:14:09.900Z,101396.56
2019-02-21T03:16:39.607Z,101404.74
2019-02-21T03:19:09.443Z,101404.30
2019-02-21T03:21:39.234Z,101399.44
2019-02-21T03:24:09.114Z,101396.06
2019-02-21T03:26:39.110Z,101393.45
2019-02-21T03:29:08.819Z,101386.92
2019-02-21T03:31:53.541Z,101395.20
2019-02-21T03:34:10.258Z,101386.92
2019-02-21T03:36:40.225Z,101389.95
2019-02-21T03:39:10.282Z,101384.23
2019-02-21T03:41:40.479Z,101383.91
2019-02-21T03:44:10.478Z,101376.78
2019-02-21T03:46:40.213Z,101382.02
2019-02-21T03:49:10.010Z,101384.62
2019-02-21T03:51:39.689Z,101387.68
2019-02-21T03:54:09.755Z,101391.59
2019-02-21T03:56:39.463Z,101380.39
2019-02-21T03:59:09.155Z,101381.63
2019-02-21T04:01:38.752Z,101379.32
2019-02-21T04:04:08.367Z,101372.31
2019-02-21T04:06:38.403Z,101372.31
2019-02-21T04:09:09.709Z,101373.63
2019-02-21T04:11:39.505Z,101372.31
2019-02-21T04:14:09.471Z,101360.52
2019-02-21T04:16:39.332Z,101360.88
2019-02-21T04:19:09.424Z,101354.82
2019-02-21T04:21:39.309Z,101351.41
2019-02-21T04:24:09.579Z,101352.30
2019-02-21T04:26:39.494Z,101349.75
2019-02-21T04:29:09.082Z,101355.02
2019-02-21T04:31:38.817Z,101355.02
2019-02-21T04:34:08.635Z,101358.10
2019-02-21T04:36:38.425Z,101353.86
2019-02-21T04:39:08.352Z,101347.33
2019-02-21T04:41:38.335Z,101342.10
2019-02-21T04:44:08.336Z,101326.86
2019-02-21T04:46:39.103Z,101326.86
2019-02-21T04:49:09.069Z,101320.38
2019-02-21T04:51:38.721Z,101325.63
2019-02-21T04:54:08.565Z,101317.78
2019-02-21T04:56:38.642Z,101318.66
2019-02-21T04:59:08.357Z,101317.39
2019-02-21T05:01:40.268Z,101309.11
2019-02-21T05:04:09.625Z,101311.25
2019-02-21T05:06:39.282Z,101302.11
2019-02-21T05:11:44.402Z,101295.64
2019-02-21T05:14:14.188Z,101303.97
2019-02-21T05:39:14.365Z,101321.94
2019-02-21T05:45:18.461Z,101336.75
2019-02-21T05:57:23.567Z,101382.67
2019-02-21T06:03:18.258Z,101383.15
2019-02-21T06:09:42.955Z,101376.86
2019-02-21T06:15:32.183Z,101346.94
2019-02-21T06:24:17.740Z,101338.59
2019-02-21T06:26:55.876Z,101337.28
2019-02-21T06:32:30.927Z,101329.36
2019-02-21T06:35:02.891Z,101326.68
2019-02-21T06:37:32.533Z,101328.13
2019-02-21T06:40:02.372Z,101331.19
2019-02-21T06:42:32.067Z,101315.50
2019-02-21T06:45:02.050Z,101322.03
2019-02-21T06:47:31.575Z,101326.94
2019-02-21T06:50:01.379Z,101330.92
2019-02-21T06:52:31.211Z,101335.84
2019-02-21T06:55:02.354Z,101343.78
2019-02-21T06:57:33.106Z,101338.55
2019-02-21T07:00:02.996Z,101345.89
2019-02-21T07:02:32.799Z,101342.78
2019-02-21T07:05:02.903Z,101346.14
2019-02-21T07:07:32.832Z,101346.14
2019-02-21T07:10:02.447Z,101341.69
2019-02-21T07:12:32.075Z,101350.39
2019-02-21T07:15:02.251Z,101354.31
2019-02-21T07:17:32.358Z,101354.71
2019-02-21T07:22:54.198Z,101359.94
2019-02-21T07:31:32.915Z,101367.31
2019-02-21T07:34:02.563Z,101363.94
2019-02-21T07:39:16.819Z,101372.54
2019-02-21T07:41:41.677Z,101372.54
2019-02-21T07:44:12.354Z,101365.52
2019-02-21T07:49:31.521Z,101361.17
2019-02-21T07:52:01.217Z,101372.54
2019-02-21T07:54:31.055Z,101372.61
2019-02-21T07:57:01.950Z,101376.19
2019-02-21T08:09:13.872Z,101364.04
2019-02-21T08:11:43.861Z,101367.53
2019-02-21T08:14:32.556Z,101369.88
2019-02-21T08:17:02.461Z,101371.70
2019-02-21T08:19:32.494Z,101371.70
2019-02-21T08:22:02.605Z,101370.45
2019-02-21T08:24:32.463Z,101366.06
2019-02-21T08:27:02.136Z,101374.80
2019-02-21T08:29:31.921Z,101375.36
2019-02-21T08:32:01.579Z,101378.89
2019-02-21T08:34:35.572Z,101373.31
2019-02-21T08:37:05.167Z,101378.61
2019-02-21T08:45:50.214Z,101402.50
2019-02-21T08:48:19.993Z,101402.50
2019-02-21T08:50:49.649Z,101413.94
2019-02-21T08:53:19.409Z,101414.84
2019-02-21T08:55:49.102Z,101416.22
2019-02-21T08:58:18.814Z,101418.50
2019-02-21T09:00:48.532Z,101427.23
2019-02-21T09:03:18.344Z,101431.52
2019-02-21T09:08:41.968Z,101440.34
2019-02-21T09:11:11.928Z,101444.81
2019-02-21T09:13:41.930Z,101448.47
2019-02-21T09:16:11.532Z,101448.47
2019-02-21T09:18:41.240Z,101453.22
2019-02-21T09:21:11.515Z,101461.48
2019-02-21T09:23:41.377Z,101456.73
2019-02-21T09:26:11.127Z,101456.73
2019-02-21T09:35:23.640Z,101463.57
2019-02-21T09:37:53.571Z,101472.31
2019-02-21T09:40:23.239Z,101469.71
2019-02-21T09:42:52.945Z,101469.53
2019-02-21T09:48:12.179Z,101468.98
2019-02-21T09:50:41.942Z,101471.61
2019-02-21T09:55:50.186Z,101476.52
2019-02-21T09:58:19.115Z,101476.52
2019-02-21T10:00:48.920Z,101486.00
2019-02-21T10:03:18.485Z,101486.00
2019-02-21T10:06:08.453Z,101486.08
2019-02-21T10:08:39.410Z,101485.23
2019-02-21T10:11:11.372Z,101490.58
2019-02-21T10:13:40.940Z,101501.03
2019-02-21T10:16:11.395Z,101501.03
2019-02-21T10:18:41.099Z,101501.13
2019-02-21T10:21:10.790Z,101507.20
2019-02-21T10:23:42.164Z,101502.58
2019-02-21T10:29:40.301Z,101302.13
2019-02-21T10:32:09.997Z,101496.69
2019-02-21T10:34:42.953Z,101500.87
2019-02-21T10:37:10.941Z,101502.87
2019-02-21T10:39:40.678Z,101497.30
2019-02-21T10:42:10.251Z,101344.91
2019-02-21T10:44:39.887Z,101502.03
2019-02-21T10:47:09.737Z,101506.36
2019-02-21T10:52:50.648Z,101511.77
2019-02-21T10:55:20.431Z,101511.77
2019-02-21T11:00:32.620Z,101505.56
2019-02-21T11:03:02.369Z,101506.69
2019-02-21T11:05:32.633Z,101492.52
2019-02-21T11:08:02.721Z,101502.20
2019-02-21T11:10:33.223Z,101502.25
2019-02-21T11:13:03.189Z,101513.55
2019-02-21T11:15:51.887Z,101512.90
2019-02-21T11:18:21.734Z,101512.25
2019-02-21T11:20:51.845Z,101510.87
2019-02-21T11:23:21.543Z,101521.87
2019-02-21T11:25:51.630Z,101521.89
2019-02-21T11:28:21.670Z,101529.66
2019-02-21T11:30:51.568Z,101524.34
2019-02-21T11:36:31.898Z,101529.51
2019-02-21T11:39:01.746Z,101533.03
2019-02-21T11:41:32.078Z,101375.72
2019-02-21T11:44:01.604Z,101543.53
2019-02-21T11:46:31.601Z,101536.53
2019-02-21T11:51:51.890Z,101546.20
2019-02-21T11:54:27.032Z,101542.68
2019-02-21T11:56:54.014Z,101552.05
2019-02-21T11:59:23.682Z,101548.74
2019-02-21T12:01:53.390Z,101547.73
2019-02-21T12:04:24.439Z,101555.55
2019-02-21T12:06:54.652Z,101567.13
2019-02-21T12:09:24.294Z,101567.86
2019-02-21T12:11:54.255Z,101572.26
2019-02-21T12:14:24.004Z,101576.08
2019-02-21T12:16:54.013Z,101586.53
2019-02-21T12:19:23.842Z,101586.16
2019-02-21T12:22:48.885Z,101598.84
2019-02-21T12:25:19.136Z,101598.84
2019-02-21T12:27:49.465Z,101607.84
2019-02-21T12:36:52.009Z,101609.16
2019-02-21T12:39:21.908Z,101611.91
2019-02-21T12:41:51.666Z,101614.13
2019-02-21T12:44:21.273Z,101617.55
2019-02-21T12:46:51.111Z,101610.20
2019-02-21T12:49:21.057Z,101616.61
2019-02-21T12:51:50.628Z,101609.68
2019-02-21T12:54:20.332Z,101613.37
2019-02-21T12:56:50.176Z,101625.38
2019-02-21T13:05:06.899Z,101629.98
2019-02-21T13:07:36.545Z,101630.07
2019-02-21T13:10:08.186Z,101634.30
2019-02-21T13:12:37.901Z,101647.59
2019-02-21T13:15:09.155Z,101637.73
2019-02-21T13:17:39.244Z,101639.23
2019-02-21T13:20:09.884Z,101648.42
2019-02-21T13:22:39.684Z,101648.42
2019-02-21T13:25:10.368Z,101649.43
2019-02-21T13:27:40.093Z,101663.70
2019-02-21T13:30:12.977Z,101669.20
2019-02-21T13:32:42.642Z,101676.63
2019-02-21T13:42:30.164Z,101682.65
2019-02-21T13:45:00.032Z,101684.95
2019-02-21T13:47:32.776Z,101700.59
2019-02-21T13:53:13.116Z,101713.83
2019-02-21T13:55:43.008Z,101718.92
2019-02-21T13:58:12.590Z,101701.27
2019-02-21T14:00:42.404Z,101701.55
2019-02-21T14:03:12.390Z,101692.50
2019-02-21T14:05:42.224Z,101705.19
2019-02-21T14:08:30.913Z,101711.23
2019-02-21T14:11:00.628Z,101711.23
2019-02-21T14:13:30.395Z,101722.09
2019-02-21T14:16:00.095Z,101648.33
2019-02-21T14:18:30.353Z,101737.80
2019-02-21T14:21:00.323Z,101737.80
2019-02-21T14:23:30.134Z,101736.30
2019-02-21T14:26:00.147Z,101738.56
2019-02-21T14:28:29.961Z,101747.19
2019-02-21T14:31:00.189Z,101747.19
2019-02-21T14:33:30.261Z,101764.12
2019-02-21T14:36:00.183Z,101767.66
2019-02-21T14:38:30.186Z,101768.78
2019-02-21T14:44:49.464Z,101775.95
2019-02-21T14:47:18.806Z,101775.95
2019-02-21T14:49:48.867Z,101795.33
2019-02-21T14:55:00.767Z,101797.98
2019-02-21T14:57:40.554Z,101801.48
2019-02-21T15:00:01.867Z,101810.87
2019-02-21T15:02:31.564Z,101812.27
2019-02-21T15:07:43.124Z,101811.88
2019-02-21T15:10:12.798Z,101817.39
2019-02-21T15:12:42.521Z,101817.39
2019-02-21T15:15:13.510Z,101816.37
2019-02-21T15:17:43.127Z,101818.93
2019-02-21T15:20:16.548Z,101821.13
2019-02-21T15:22:46.493Z,101826.84
2019-02-21T15:25:16.342Z,101826.84
2019-02-21T15:27:46.114Z,101832.58
2019-02-21T15:30:17.866Z,101844.77
2019-02-21T15:32:47.854Z,101851.42
2019-02-21T15:38:44.603Z,101854.75
2019-02-21T15:41:14.245Z,101863.91
2019-02-21T15:43:43.899Z,101863.91
2019-02-21T15:46:13.751Z,101862.69
2019-02-21T15:48:44.688Z,101876.05
2019-02-21T16:04:04.170Z,101900.52
2019-02-21T16:06:33.995Z,101903.14
2019-02-21T16:11:54.481Z,101906.97
2019-02-21T16:14:25.888Z,101900.75
2019-02-21T16:16:55.613Z,101911.72
2019-02-21T16:19:25.345Z,101920.33
2019-02-21T16:35:06.893Z,101953.50
2019-02-21T16:43:56.477Z,101976.73
2019-02-21T16:46:26.246Z,101976.73
2019-02-21T16:51:53.767Z,101995.38
2019-02-21T16:54:23.517Z,102010.27
2019-02-21T16:56:53.658Z,102029.70
2019-02-21T16:59:23.463Z,102037.06
2019-02-21T17:01:53.199Z,102052.73
2019-02-21T17:04:23.129Z,102052.73
2019-02-21T17:06:52.913Z,102057.47
2019-02-21T17:09:22.838Z,102073.94
2019-02-21T17:12:11.954Z,102073.16
2019-02-21T17:14:41.774Z,102073.16
2019-02-21T17:17:11.472Z,102101.77
2019-02-21T17:19:41.439Z,102113.70
2019-02-21T17:22:11.156Z,102113.89
2019-02-21T17:24:41.128Z,102137.28
2019-02-21T17:27:11.200Z,102137.28
2019-02-21T17:29:41.314Z,102137.98
2019-02-21T17:37:29.544Z,102154.70
2019-02-21T17:39:59.557Z,102171.81
2019-02-21T17:42:29.458Z,102179.03
2019-02-21T17:44:59.298Z,102187.81
2019-02-21T17:53:16.764Z,102225.78
2019-02-21T17:58:44.773Z,102239.22
2019-02-21T18:01:51.053Z,102244.06
2019-02-21T18:05:00.745Z,102244.06
2019-02-21T18:07:36.320Z,102255.55
2019-02-21T18:10:02.776Z,102272.10
2019-02-21T18:12:32.656Z,102279.98
2019-02-21T18:15:21.579Z,102295.67
2019-02-21T18:17:51.950Z,102295.67
2019-02-21T18:20:21.639Z,102312.31
2019-02-21T18:23:12.410Z,102315.91
2019-02-21T18:25:45.745Z,102324.32
2019-02-21T18:28:15.565Z,102331.86
2019-02-21T18:30:45.553Z,102331.86
2019-02-21T18:33:15.603Z,102329.67
2019-02-21T18:35:45.533Z,102333.33
2019-02-21T18:38:16.043Z,102339.15
2019-02-21T18:40:45.900Z,102343.80
2019-02-21T18:43:15.644Z,102339.97
2019-02-21T18:46:04.418Z,102353.01
2019-02-21T18:48:34.124Z,102353.01
2019-02-21T18:53:40.422Z,102351.38
2019-02-21T18:59:32.145Z,102358.08
2019-02-21T19:08:24.626Z,102386.63
2019-02-21T19:10:54.607Z,102384.43
2019-02-21T19:13:24.607Z,102394.34
2019-02-21T19:15:54.470Z,102397.91
2019-02-21T19:25:10.587Z,102422.23
2019-02-21T19:27:41.264Z,102422.23
2019-02-21T19:30:47.627Z,102444.58
2019-02-21T19:33:17.451Z,102444.58
2019-02-21T19:35:48.629Z,102467.38
2019-02-21T19:38:19.640Z,102491.69
2019-02-21T19:43:38.818Z,102510.15
2019-02-21T19:46:09.035Z,102518.22
2019-02-21T19:48:38.817Z,102529.30
2019-02-21T19:51:09.048Z,102543.16
2019-02-21T19:56:14.034Z,102558.05
2019-02-21T19:58:43.862Z,102558.92
2019-02-21T20:01:13.799Z,102562.74
2019-02-21T20:03:43.544Z,102582.29
2019-02-21T20:06:14.215Z,102596.58
2019-02-21T20:08:44.324Z,102596.58
2019-02-21T20:15:06.657Z,102609.07
2019-02-21T20:17:36.913Z,102609.23
2019-02-21T20:20:07.028Z,102623.72
2019-02-21T20:22:36.852Z,102635.74
2019-02-21T20:25:06.762Z,102648.31
2019-02-21T20:27:36.760Z,102653.69
2019-02-21T20:30:07.560Z,102669.14
2019-02-21T20:32:37.422Z,102676.76
2019-02-21T20:35:07.575Z,102689.48
2019-02-21T20:37:37.477Z,102689.48
2019-02-21T20:40:08.055Z,102689.16
2019-02-21T20:42:37.962Z,102695.94
2019-02-21T20:45:08.652Z,102699.28
2019-02-21T20:47:38.463Z,102707.16
2019-02-21T20:50:08.887Z,102715.55
2019-02-21T20:52:39.054Z,102731.52
2019-02-21T20:55:09.468Z,102731.48
2019-02-21T20:57:39.743Z,102738.00
2019-02-21T21:00:11.307Z,102749.66
2019-02-21T21:02:42.337Z,102765.23
2019-02-21T21:05:12.593Z,102766.52
2019-02-21T21:07:42.485Z,102779.69
2019-02-21T21:10:13.835Z,102798.78
2019-02-21T21:12:43.850Z,102798.78
2019-02-21T21:15:14.986Z,102800.32
2019-02-21T21:17:45.023Z,102810.16
2019-02-21T21:23:05.072Z,102819.45
2019-02-21T21:25:35.034Z,102681.20
2019-02-21T21:34:27.451Z,102845.00
2019-02-21T21:36:57.391Z,102862.41
2019-02-21T21:39:28.312Z,102866.81
2019-02-21T21:41:59.041Z,102870.06
2019-02-21T21:44:28.653Z,102877.53
2019-02-21T21:46:58.705Z,102882.77
2019-02-21T21:49:28.581Z,102894.45
2019-02-21T21:51:58.484Z,102898.00
2019-02-21T22:00:32.116Z,102921.58
2019-02-21T22:03:02.282Z,102926.97
2019-02-21T22:05:32.226Z,102940.92
2019-02-21T22:10:37.084Z,102952.03
2019-02-21T22:13:07.418Z,102962.00
2019-02-21T22:15:37.683Z,102956.41
2019-02-21T22:18:07.499Z,102971.91
2019-02-21T22:20:38.054Z,102971.91
2019-02-21T22:23:08.087Z,102990.71
2019-02-21T22:25:37.890Z,102994.30
2019-02-21T22:28:08.136Z,103005.41
2019-02-21T22:30:37.775Z,103004.45
2019-02-21T22:33:07.843Z,103025.84
2019-02-21T22:35:37.669Z,103031.70
2019-02-21T22:38:07.534Z,103036.86
2019-02-21T22:40:38.033Z,103041.34
2019-02-21T22:43:08.716Z,103052.38
2019-02-21T22:45:57.401Z,103062.60
2019-02-21T22:48:27.352Z,103072.02
2019-02-21T22:50:57.906Z,103076.09
2019-02-21T22:53:28.186Z,103084.91
2019-02-21T22:55:58.198Z,103087.80
2019-02-21T22:58:28.302Z,103090.47
2019-02-21T23:01:26.140Z,103104.67
2019-02-21T23:04:20.107Z,103108.48
2019-02-21T23:10:13.147Z,103122.29
2019-02-21T23:12:43.347Z,103132.92
2019-02-21T23:18:25.007Z,103151.34
2019-02-21T23:20:54.664Z,103163.98
2019-02-21T23:23:24.317Z,103179.37
2019-02-21T23:25:54.226Z,103192.89
2019-02-21T23:28:24.271Z,103198.98
2019-02-21T23:30:54.317Z,103200.66
2019-02-21T23:39:37.803Z,103217.69
2019-02-21T23:41:59.706Z,103232.31
2019-02-21T23:44:29.987Z,103227.98
2019-02-21T23:50:00.670Z,103241.58
2019-02-21T23:52:30.777Z,103248.61
2019-02-21T23:55:00.806Z,103252.80
2019-02-21T23:57:32.322Z,103261.41
